sensor_id;sensor_type;location;lat;lon;timestamp;P1;durP1;ratioP1;P2;durP2;ratioP2
37309;SDS011;23195;47.744;7.358;2023-01-01T00:01:22;11.93;;;7.77;;
37309;SDS011;23195;47.744;7.358;2023-01-01T00:03:50;15.33;;;7.00;;
37309;SDS011;23195;47.744;7.358;2023-01-01T00:06:18;12.43;;;7.80;;
37309;SDS011;23195;47.744;7.358;2023-01-01T00:08:52;10.00;;;6.30;;
37309;SDS011;23195;47.744;7.358;2023-01-01T00:11:37;7.93;;;5.23;;
37309;SDS011;23195;47.744;7.358;2023-01-01T00:14:05;9.00;;;6.27;;
37309;SDS011;23195;47.744;7.358;2023-01-01T00:16:32;11.63;;;7.20;;
37309;SDS011;23195;47.744;7.358;2023-01-01T00:18:59;13.67;;;8.20;;
37309;SDS011;23195;47.744;7.358;2023-01-01T00:21:27;16.00;;;9.00;;
37309;SDS011;23195;47.744;7.358;2023-01-01T00:23:54;15.73;;;9.97;;
37309;SDS011;23195;47.744;7.358;2023-01-01T00:26:21;15.27;;;9.53;;
37309;SDS011;23195;47.744;7.358;2023-01-01T00:28:52;18.93;;;11.10;;
37309;SDS011;23195;47.744;7.358;2023-01-01T00:31:28;15.30;;;9.67;;
37309;SDS011;23195;47.744;7.358;2023-01-01T00:33:55;16.37;;;9.90;;
37309;SDS011;23195;47.744;7.358;2023-01-01T00:36:24;16.93;;;9.93;;
37309;SDS011;23195;47.744;7.358;2023-01-01T00:38:52;17.73;;;10.60;;
37309;SDS011;23195;47.744;7.358;2023-01-01T00:41:28;17.27;;;10.20;;
37309;SDS011;23195;47.744;7.358;2023-01-01T00:44:05;16.63;;;9.17;;
37309;SDS011;23195;47.744;7.358;2023-01-01T00:46:35;13.80;;;8.93;;
37309;SDS011;23195;47.744;7.358;2023-01-01T00:49:03;21.90;;;9.57;;
37309;SDS011;23195;47.744;7.358;2023-01-01T00:51:32;15.50;;;9.00;;
37309;SDS011;23195;47.744;7.358;2023-01-01T00:54:00;16.83;;;9.07;;
37309;SDS011;23195;47.744;7.358;2023-01-01T00:56:27;13.83;;;9.30;;
37309;SDS011;23195;47.744;7.358;2023-01-01T00:58:54;14.57;;;8.83;;
37309;SDS011;23195;47.744;7.358;2023-01-01T01:01:21;15.00;;;8.80;;
37309;SDS011;23195;47.744;7.358;2023-01-01T01:03:48;17.57;;;8.13;;
37309;SDS011;23195;47.744;7.358;2023-01-01T01:06:19;14.03;;;7.87;;
37309;SDS011;23195;47.744;7.358;2023-01-01T01:08:46;15.50;;;8.23;;
37309;SDS011;23195;47.744;7.358;2023-01-01T01:11:14;13.43;;;7.80;;
37309;SDS011;23195;47.744;7.358;2023-01-01T01:13:44;16.03;;;8.37;;
37309;SDS011;23195;47.744;7.358;2023-01-01T01:16:17;14.13;;;9.13;;
37309;SDS011;23195;47.744;7.358;2023-01-01T01:18:45;17.00;;;9.80;;
37309;SDS011;23195;47.744;7.358;2023-01-01T01:21:15;19.40;;;11.10;;
37309;SDS011;23195;47.744;7.358;2023-01-01T01:23:47;21.40;;;11.70;;
37309;SDS011;23195;47.744;7.358;2023-01-01T01:26:33;23.40;;;12.57;;
37309;SDS011;23195;47.744;7.358;2023-01-01T01:29:01;30.47;;;15.47;;
37309;SDS011;23195;47.744;7.358;2023-01-01T01:31:29;28.53;;;15.80;;
37309;SDS011;23195;47.744;7.358;2023-01-01T01:33:58;26.87;;;15.10;;
37309;SDS011;23195;47.744;7.358;2023-01-01T01:36:30;29.17;;;15.97;;
37309;SDS011;23195;47.744;7.358;2023-01-01T01:38:57;26.00;;;15.60;;
37309;SDS011;23195;47.744;7.358;2023-01-01T01:41:25;26.90;;;16.27;;
37309;SDS011;23195;47.744;7.358;2023-01-01T01:43:59;31.70;;;17.90;;
37309;SDS011;23195;47.744;7.358;2023-01-01T01:46:37;21.83;;;12.40;;
37309;SDS011;23195;47.744;7.358;2023-01-01T01:49:15;30.37;;;16.90;;
37309;SDS011;23195;47.744;7.358;2023-01-01T01:51:47;20.63;;;12.33;;
37309;SDS011;23195;47.744;7.358;2023-01-01T01:54:19;31.00;;;16.83;;
37309;SDS011;23195;47.744;7.358;2023-01-01T01:56:51;20.50;;;11.07;;
37309;SDS011;23195;47.744;7.358;2023-01-01T01:59:26;17.57;;;10.27;;
37309;SDS011;23195;47.744;7.358;2023-01-01T02:01:59;22.83;;;12.63;;
37309;SDS011;23195;47.744;7.358;2023-01-01T02:04:26;22.13;;;13.20;;
37309;SDS011;23195;47.744;7.358;2023-01-01T02:06:58;24.50;;;13.60;;
37309;SDS011;23195;47.744;7.358;2023-01-01T02:09:26;20.30;;;11.17;;
37309;SDS011;23195;47.744;7.358;2023-01-01T02:11:54;27.70;;;13.20;;
37309;SDS011;23195;47.744;7.358;2023-01-01T02:14:21;18.87;;;10.63;;
37309;SDS011;23195;47.744;7.358;2023-01-01T02:16:51;23.80;;;12.27;;
37309;SDS011;23195;47.744;7.358;2023-01-01T02:22:14;20.63;;;11.00;;
37309;SDS011;23195;47.744;7.358;2023-01-01T02:30:28;19.23;;;9.87;;
37309;SDS011;23195;47.744;7.358;2023-01-01T02:33:05;18.47;;;10.17;;
37309;SDS011;23195;47.744;7.358;2023-01-01T02:38:43;12.27;;;6.70;;
37309;SDS011;23195;47.744;7.358;2023-01-01T02:41:15;12.97;;;7.40;;
37309;SDS011;23195;47.744;7.358;2023-01-01T02:43:53;18.13;;;9.37;;
37309;SDS011;23195;47.744;7.358;2023-01-01T02:46:23;22.67;;;9.17;;
37309;SDS011;23195;47.744;7.358;2023-01-01T02:49:06;17.53;;;9.53;;
37309;SDS011;23195;47.744;7.358;2023-01-01T02:54:31;16.60;;;9.93;;
37309;SDS011;23195;47.744;7.358;2023-01-01T02:57:29;22.73;;;12.47;;
37309;SDS011;23195;47.744;7.358;2023-01-01T03:00:00;25.90;;;12.80;;
37309;SDS011;23195;47.744;7.358;2023-01-01T03:08:51;19.83;;;12.03;;
37309;SDS011;23195;47.744;7.358;2023-01-01T03:19:51;16.93;;;9.63;;
37309;SDS011;23195;47.744;7.358;2023-01-01T03:22:20;20.87;;;9.87;;
37309;SDS011;23195;47.744;7.358;2023-01-01T03:24:54;18.07;;;10.43;;
37309;SDS011;23195;47.744;7.358;2023-01-01T03:27:34;18.30;;;10.83;;
37309;SDS011;23195;47.744;7.358;2023-01-01T03:30:07;22.03;;;11.93;;
37309;SDS011;23195;47.744;7.358;2023-01-01T03:32:39;20.53;;;11.10;;
37309;SDS011;23195;47.744;7.358;2023-01-01T03:35:25;19.00;;;11.23;;
37309;SDS011;23195;47.744;7.358;2023-01-01T03:38:03;25.00;;;12.87;;
37309;SDS011;23195;47.744;7.358;2023-01-01T03:40:55;33.30;;;18.20;;
37309;SDS011;23195;47.744;7.358;2023-01-01T03:43:34;28.43;;;14.73;;
37309;SDS011;23195;47.744;7.358;2023-01-01T03:46:13;28.63;;;16.73;;
37309;SDS011;23195;47.744;7.358;2023-01-01T03:48:47;39.83;;;21.10;;
37309;SDS011;23195;47.744;7.358;2023-01-01T03:54:06;39.90;;;21.37;;
37309;SDS011;23195;47.744;7.358;2023-01-01T03:56:39;39.43;;;21.07;;
37309;SDS011;23195;47.744;7.358;2023-01-01T03:59:19;44.57;;;23.43;;
37309;SDS011;23195;47.744;7.358;2023-01-01T04:01:51;49.57;;;26.57;;
37309;SDS011;23195;47.744;7.358;2023-01-01T04:04:21;53.17;;;29.47;;
37309;SDS011;23195;47.744;7.358;2023-01-01T04:06:51;52.67;;;27.80;;
37309;SDS011;23195;47.744;7.358;2023-01-01T04:09:19;56.30;;;29.57;;
37309;SDS011;23195;47.744;7.358;2023-01-01T04:11:48;67.67;;;31.90;;
37309;SDS011;23195;47.744;7.358;2023-01-01T04:14:35;64.27;;;31.93;;
37309;SDS011;23195;47.744;7.358;2023-01-01T04:17:05;57.57;;;31.47;;
37309;SDS011;23195;47.744;7.358;2023-01-01T04:19:33;61.37;;;32.47;;
37309;SDS011;23195;47.744;7.358;2023-01-01T04:21:59;59.40;;;31.23;;
37309;SDS011;23195;47.744;7.358;2023-01-01T04:24:28;56.70;;;31.10;;
37309;SDS011;23195;47.744;7.358;2023-01-01T04:26:54;59.57;;;31.03;;
37309;SDS011;23195;47.744;7.358;2023-01-01T04:29:20;55.20;;;30.80;;
37309;SDS011;23195;47.744;7.358;2023-01-01T04:31:47;59.33;;;31.90;;
37309;SDS011;23195;47.744;7.358;2023-01-01T04:34:14;55.37;;;29.80;;
37309;SDS011;23195;47.744;7.358;2023-01-01T04:36:40;50.83;;;28.20;;
37309;SDS011;23195;47.744;7.358;2023-01-01T04:39:06;56.77;;;28.37;;
37309;SDS011;23195;47.744;7.358;2023-01-01T04:41:32;49.00;;;28.43;;
37309;SDS011;23195;47.744;7.358;2023-01-01T04:43:58;48.10;;;25.87;;
37309;SDS011;23195;47.744;7.358;2023-01-01T04:46:24;47.23;;;26.43;;
37309;SDS011;23195;47.744;7.358;2023-01-01T04:48:52;44.23;;;24.07;;
37309;SDS011;23195;47.744;7.358;2023-01-01T04:51:19;45.60;;;24.53;;
37309;SDS011;23195;47.744;7.358;2023-01-01T04:53:45;44.47;;;23.77;;
37309;SDS011;23195;47.744;7.358;2023-01-01T04:56:12;38.37;;;21.20;;
37309;SDS011;23195;47.744;7.358;2023-01-01T04:58:43;39.80;;;22.17;;
37309;SDS011;23195;47.744;7.358;2023-01-01T05:01:13;40.43;;;21.77;;
37309;SDS011;23195;47.744;7.358;2023-01-01T05:03:41;40.30;;;22.90;;
37309;SDS011;23195;47.744;7.358;2023-01-01T05:06:08;43.73;;;22.93;;
37309;SDS011;23195;47.744;7.358;2023-01-01T05:08:36;40.67;;;22.70;;
37309;SDS011;23195;47.744;7.358;2023-01-01T05:11:04;42.80;;;23.33;;
37309;SDS011;23195;47.744;7.358;2023-01-01T05:13:35;57.37;;;30.20;;
37309;SDS011;23195;47.744;7.358;2023-01-01T05:16:06;62.23;;;28.97;;
37309;SDS011;23195;47.744;7.358;2023-01-01T05:18:34;45.17;;;25.37;;
37309;SDS011;23195;47.744;7.358;2023-01-01T05:21:04;42.40;;;22.87;;
37309;SDS011;23195;47.744;7.358;2023-01-01T05:23:36;44.53;;;23.17;;
37309;SDS011;23195;47.744;7.358;2023-01-01T05:26:09;44.00;;;24.37;;
37309;SDS011;23195;47.744;7.358;2023-01-01T05:28:42;51.27;;;25.77;;
37309;SDS011;23195;47.744;7.358;2023-01-01T05:31:13;46.20;;;24.53;;
37309;SDS011;23195;47.744;7.358;2023-01-01T05:33:43;49.83;;;26.90;;
37309;SDS011;23195;47.744;7.358;2023-01-01T05:36:10;50.37;;;27.63;;
37309;SDS011;23195;47.744;7.358;2023-01-01T05:38:44;50.03;;;26.10;;
37309;SDS011;23195;47.744;7.358;2023-01-01T05:41:11;51.63;;;27.30;;
37309;SDS011;23195;47.744;7.358;2023-01-01T05:43:38;45.10;;;24.33;;
37309;SDS011;23195;47.744;7.358;2023-01-01T05:46:06;50.77;;;26.23;;
37309;SDS011;23195;47.744;7.358;2023-01-01T05:48:39;48.20;;;25.03;;
37309;SDS011;23195;47.744;7.358;2023-01-01T05:54:10;44.30;;;23.70;;
37309;SDS011;23195;47.744;7.358;2023-01-01T05:56:35;44.63;;;23.13;;
37309;SDS011;23195;47.744;7.358;2023-01-01T05:59:01;49.57;;;24.40;;
37309;SDS011;23195;47.744;7.358;2023-01-01T06:01:28;48.27;;;23.63;;
37309;SDS011;23195;47.744;7.358;2023-01-01T06:03:55;47.63;;;24.90;;
37309;SDS011;23195;47.744;7.358;2023-01-01T06:06:23;42.27;;;22.63;;
37309;SDS011;23195;47.744;7.358;2023-01-01T06:08:55;42.60;;;22.90;;
37309;SDS011;23195;47.744;7.358;2023-01-01T06:11:25;43.73;;;23.17;;
37309;SDS011;23195;47.744;7.358;2023-01-01T06:13:54;42.17;;;22.70;;
37309;SDS011;23195;47.744;7.358;2023-01-01T06:16:21;42.30;;;22.07;;
37309;SDS011;23195;47.744;7.358;2023-01-01T06:18:47;40.83;;;22.10;;
37309;SDS011;23195;47.744;7.358;2023-01-01T06:21:17;46.60;;;23.63;;
37309;SDS011;23195;47.744;7.358;2023-01-01T06:23:45;40.10;;;22.33;;
37309;SDS011;23195;47.744;7.358;2023-01-01T06:26:17;41.50;;;22.03;;
37309;SDS011;23195;47.744;7.358;2023-01-01T06:28:45;39.33;;;20.67;;
37309;SDS011;23195;47.744;7.358;2023-01-01T06:31:12;36.90;;;20.13;;
37309;SDS011;23195;47.744;7.358;2023-01-01T06:33:39;37.87;;;19.50;;
37309;SDS011;23195;47.744;7.358;2023-01-01T06:36:06;37.27;;;20.37;;
37309;SDS011;23195;47.744;7.358;2023-01-01T06:38:38;32.17;;;19.13;;
37309;SDS011;23195;47.744;7.358;2023-01-01T06:41:14;36.17;;;20.17;;
37309;SDS011;23195;47.744;7.358;2023-01-01T06:43:50;35.57;;;19.27;;
37309;SDS011;23195;47.744;7.358;2023-01-01T06:46:17;35.17;;;17.53;;
37309;SDS011;23195;47.744;7.358;2023-01-01T06:48:52;32.43;;;16.67;;
37309;SDS011;23195;47.744;7.358;2023-01-01T06:51:30;35.70;;;18.40;;
37309;SDS011;23195;47.744;7.358;2023-01-01T06:54:03;39.03;;;19.43;;
37309;SDS011;23195;47.744;7.358;2023-01-01T06:56:32;29.60;;;16.80;;
37309;SDS011;23195;47.744;7.358;2023-01-01T06:59:07;25.20;;;12.97;;
37309;SDS011;23195;47.744;7.358;2023-01-01T07:01:33;24.63;;;13.20;;
37309;SDS011;23195;47.744;7.358;2023-01-01T07:04:02;20.77;;;12.57;;
37309;SDS011;23195;47.744;7.358;2023-01-01T07:06:32;19.83;;;12.47;;
37309;SDS011;23195;47.744;7.358;2023-01-01T07:08:59;22.80;;;11.90;;
37309;SDS011;23195;47.744;7.358;2023-01-01T07:11:25;23.37;;;12.80;;
37309;SDS011;23195;47.744;7.358;2023-01-01T07:13:51;24.93;;;13.70;;
37309;SDS011;23195;47.744;7.358;2023-01-01T07:16:17;28.60;;;14.83;;
37309;SDS011;23195;47.744;7.358;2023-01-01T07:18:43;32.07;;;16.73;;
37309;SDS011;23195;47.744;7.358;2023-01-01T07:21:23;27.63;;;14.90;;
37309;SDS011;23195;47.744;7.358;2023-01-01T07:24:07;30.43;;;16.07;;
37309;SDS011;23195;47.744;7.358;2023-01-01T07:26:38;29.63;;;15.67;;
37309;SDS011;23195;47.744;7.358;2023-01-01T07:29:05;28.27;;;15.67;;
37309;SDS011;23195;47.744;7.358;2023-01-01T07:31:32;29.73;;;14.80;;
37309;SDS011;23195;47.744;7.358;2023-01-01T07:33:59;29.43;;;15.10;;
37309;SDS011;23195;47.744;7.358;2023-01-01T07:36:30;27.63;;;14.57;;
37309;SDS011;23195;47.744;7.358;2023-01-01T07:38:56;28.33;;;14.63;;
37309;SDS011;23195;47.744;7.358;2023-01-01T07:41:22;26.47;;;12.93;;
37309;SDS011;23195;47.744;7.358;2023-01-01T07:43:47;26.70;;;12.80;;
37309;SDS011;23195;47.744;7.358;2023-01-01T07:46:14;23.40;;;11.37;;
37309;SDS011;23195;47.744;7.358;2023-01-01T07:48:43;20.70;;;11.23;;
37309;SDS011;23195;47.744;7.358;2023-01-01T07:51:09;21.33;;;12.13;;
37309;SDS011;23195;47.744;7.358;2023-01-01T07:53:35;26.00;;;12.23;;
37309;SDS011;23195;47.744;7.358;2023-01-01T07:56:01;22.70;;;11.87;;
37309;SDS011;23195;47.744;7.358;2023-01-01T07:58:27;19.17;;;11.00;;
37309;SDS011;23195;47.744;7.358;2023-01-01T08:00:52;18.90;;;11.30;;
37309;SDS011;23195;47.744;7.358;2023-01-01T08:03:18;19.53;;;11.30;;
37309;SDS011;23195;47.744;7.358;2023-01-01T08:05:46;22.37;;;12.00;;
37309;SDS011;23195;47.744;7.358;2023-01-01T08:08:12;20.93;;;11.97;;
37309;SDS011;23195;47.744;7.358;2023-01-01T08:10:38;21.23;;;11.77;;
37309;SDS011;23195;47.744;7.358;2023-01-01T08:13:05;19.07;;;11.07;;
37309;SDS011;23195;47.744;7.358;2023-01-01T08:15:31;21.23;;;11.47;;
37309;SDS011;23195;47.744;7.358;2023-01-01T08:18:00;35.87;;;20.23;;
37309;SDS011;23195;47.744;7.358;2023-01-01T08:20:29;43.93;;;25.63;;
37309;SDS011;23195;47.744;7.358;2023-01-01T08:22:56;31.57;;;18.20;;
37309;SDS011;23195;47.744;7.358;2023-01-01T08:25:21;21.77;;;10.87;;
37309;SDS011;23195;47.744;7.358;2023-01-01T08:27:47;20.00;;;11.00;;
37309;SDS011;23195;47.744;7.358;2023-01-01T08:30:13;15.80;;;9.37;;
37309;SDS011;23195;47.744;7.358;2023-01-01T08:32:40;16.90;;;9.50;;
37309;SDS011;23195;47.744;7.358;2023-01-01T08:35:13;14.37;;;8.63;;
37309;SDS011;23195;47.744;7.358;2023-01-01T08:38:03;16.37;;;9.50;;
37309;SDS011;23195;47.744;7.358;2023-01-01T08:40:29;16.60;;;9.50;;
37309;SDS011;23195;47.744;7.358;2023-01-01T08:42:55;19.17;;;9.57;;
37309;SDS011;23195;47.744;7.358;2023-01-01T08:45:21;18.13;;;10.10;;
37309;SDS011;23195;47.744;7.358;2023-01-01T08:47:47;19.00;;;8.27;;
37309;SDS011;23195;47.744;7.358;2023-01-01T08:50:16;16.07;;;8.30;;
37309;SDS011;23195;47.744;7.358;2023-01-01T08:52:52;12.07;;;7.13;;
37309;SDS011;23195;47.744;7.358;2023-01-01T08:55:17;17.30;;;7.53;;
37309;SDS011;23195;47.744;7.358;2023-01-01T08:57:43;11.80;;;6.53;;
37309;SDS011;23195;47.744;7.358;2023-01-01T09:00:12;7.47;;;5.13;;
37309;SDS011;23195;47.744;7.358;2023-01-01T09:02:41;11.80;;;5.37;;
37309;SDS011;23195;47.744;7.358;2023-01-01T09:05:07;6.23;;;4.37;;
37309;SDS011;23195;47.744;7.358;2023-01-01T09:07:33;9.77;;;4.60;;
37309;SDS011;23195;47.744;7.358;2023-01-01T09:09:59;11.30;;;5.73;;
37309;SDS011;23195;47.744;7.358;2023-01-01T09:12:32;12.00;;;5.93;;
37309;SDS011;23195;47.744;7.358;2023-01-01T09:14:58;9.30;;;5.30;;
37309;SDS011;23195;47.744;7.358;2023-01-01T09:17:24;9.47;;;4.80;;
37309;SDS011;23195;47.744;7.358;2023-01-01T09:19:50;10.03;;;5.10;;
37309;SDS011;23195;47.744;7.358;2023-01-01T09:22:16;12.20;;;5.40;;
37309;SDS011;23195;47.744;7.358;2023-01-01T09:24:41;13.77;;;6.30;;
37309;SDS011;23195;47.744;7.358;2023-01-01T09:27:07;9.80;;;5.20;;
37309;SDS011;23195;47.744;7.358;2023-01-01T09:29:33;10.17;;;5.97;;
37309;SDS011;23195;47.744;7.358;2023-01-01T09:32:01;11.13;;;5.83;;
37309;SDS011;23195;47.744;7.358;2023-01-01T09:34:27;8.50;;;4.90;;
37309;SDS011;23195;47.744;7.358;2023-01-01T09:36:53;8.80;;;4.80;;
37309;SDS011;23195;47.744;7.358;2023-01-01T09:39:18;8.33;;;4.33;;
37309;SDS011;23195;47.744;7.358;2023-01-01T09:44:44;6.50;;;4.47;;
37309;SDS011;23195;47.744;7.358;2023-01-01T09:47:30;7.07;;;4.17;;
37309;SDS011;23195;47.744;7.358;2023-01-01T09:53:12;6.80;;;4.27;;
37309;SDS011;23195;47.744;7.358;2023-01-01T09:55:49;7.93;;;4.30;;
37309;SDS011;23195;47.744;7.358;2023-01-01T09:58:36;8.80;;;4.60;;
37309;SDS011;23195;47.744;7.358;2023-01-01T10:03:52;7.93;;;3.90;;
37309;SDS011;23195;47.744;7.358;2023-01-01T10:06:32;5.47;;;3.40;;
37309;SDS011;23195;47.744;7.358;2023-01-01T10:09:16;7.37;;;3.73;;
37309;SDS011;23195;47.744;7.358;2023-01-01T10:15:22;7.60;;;3.53;;
37309;SDS011;23195;47.744;7.358;2023-01-01T10:17:57;6.87;;;2.77;;
37309;SDS011;23195;47.744;7.358;2023-01-01T10:20:27;4.83;;;2.77;;
37309;SDS011;23195;47.744;7.358;2023-01-01T10:23:17;6.93;;;3.13;;
37309;SDS011;23195;47.744;7.358;2023-01-01T10:25:47;3.87;;;2.50;;
37309;SDS011;23195;47.744;7.358;2023-01-01T10:28:26;8.43;;;2.90;;
37309;SDS011;23195;47.744;7.358;2023-01-01T10:31:16;6.50;;;2.87;;
37309;SDS011;23195;47.744;7.358;2023-01-01T10:33:44;7.23;;;2.40;;
37309;SDS011;23195;47.744;7.358;2023-01-01T10:36:12;8.27;;;3.13;;
37309;SDS011;23195;47.744;7.358;2023-01-01T10:38:43;7.07;;;2.90;;
37309;SDS011;23195;47.744;7.358;2023-01-01T10:41:13;4.80;;;3.17;;
37309;SDS011;23195;47.744;7.358;2023-01-01T10:43:42;6.73;;;3.63;;
37309;SDS011;23195;47.744;7.358;2023-01-01T10:46:18;5.37;;;2.80;;
37309;SDS011;23195;47.744;7.358;2023-01-01T10:49:10;4.70;;;3.10;;
37309;SDS011;23195;47.744;7.358;2023-01-01T10:51:48;7.07;;;3.00;;
37309;SDS011;23195;47.744;7.358;2023-01-01T10:56:57;6.77;;;2.80;;
37309;SDS011;23195;47.744;7.358;2023-01-01T10:59:33;4.17;;;2.77;;
37309;SDS011;23195;47.744;7.358;2023-01-01T11:05:11;6.67;;;2.50;;
37309;SDS011;23195;47.744;7.358;2023-01-01T11:07:46;8.43;;;2.73;;
37309;SDS011;23195;47.744;7.358;2023-01-01T11:10:16;4.37;;;2.40;;
37309;SDS011;23195;47.744;7.358;2023-01-01T11:12:50;6.50;;;2.57;;
37309;SDS011;23195;47.744;7.358;2023-01-01T11:15:22;6.07;;;2.67;;
37309;SDS011;23195;47.744;7.358;2023-01-01T11:18:10;4.50;;;2.87;;
37309;SDS011;23195;47.744;7.358;2023-01-01T11:20:37;11.63;;;3.17;;
37309;SDS011;23195;47.744;7.358;2023-01-01T11:23:17;5.70;;;2.37;;
37309;SDS011;23195;47.744;7.358;2023-01-01T11:25:55;3.70;;;2.17;;
37309;SDS011;23195;47.744;7.358;2023-01-01T11:31:49;7.23;;;2.23;;
37309;SDS011;23195;47.744;7.358;2023-01-01T11:34:24;4.93;;;2.23;;
37309;SDS011;23195;47.744;7.358;2023-01-01T11:39:34;7.73;;;2.03;;
37309;SDS011;23195;47.744;7.358;2023-01-01T11:42:06;5.20;;;2.03;;
37309;SDS011;23195;47.744;7.358;2023-01-01T11:44:42;5.80;;;2.17;;
37309;SDS011;23195;47.744;7.358;2023-01-01T11:47:26;6.57;;;2.53;;
37309;SDS011;23195;47.744;7.358;2023-01-01T11:49:58;10.70;;;2.57;;
37309;SDS011;23195;47.744;7.358;2023-01-01T11:52:39;7.53;;;3.10;;
37309;SDS011;23195;47.744;7.358;2023-01-01T11:57:53;10.97;;;4.80;;
37309;SDS011;23195;47.744;7.358;2023-01-01T12:00:48;8.17;;;4.70;;
37309;SDS011;23195;47.744;7.358;2023-01-01T12:03:24;9.73;;;4.50;;
37309;SDS011;23195;47.744;7.358;2023-01-01T12:06:05;7.10;;;4.37;;
37309;SDS011;23195;47.744;7.358;2023-01-01T12:08:49;11.23;;;4.70;;
37309;SDS011;23195;47.744;7.358;2023-01-01T12:11:35;12.00;;;4.93;;
37309;SDS011;23195;47.744;7.358;2023-01-01T12:14:28;6.23;;;4.30;;
37309;SDS011;23195;47.744;7.358;2023-01-01T12:22:36;7.57;;;4.10;;
37309;SDS011;23195;47.744;7.358;2023-01-01T12:25:11;7.80;;;3.97;;
37309;SDS011;23195;47.744;7.358;2023-01-01T12:30:23;7.70;;;3.83;;
37309;SDS011;23195;47.744;7.358;2023-01-01T12:41:23;7.47;;;2.70;;
37309;SDS011;23195;47.744;7.358;2023-01-01T12:44:01;5.57;;;2.40;;
37309;SDS011;23195;47.744;7.358;2023-01-01T12:49:33;7.47;;;2.50;;
37309;SDS011;23195;47.744;7.358;2023-01-01T12:52:23;4.67;;;2.50;;
37309;SDS011;23195;47.744;7.358;2023-01-01T12:58:15;5.00;;;2.20;;
37309;SDS011;23195;47.744;7.358;2023-01-01T13:00:57;5.90;;;2.10;;
37309;SDS011;23195;47.744;7.358;2023-01-01T13:06:42;5.73;;;2.53;;
37309;SDS011;23195;47.744;7.358;2023-01-01T13:09:50;4.60;;;2.50;;
37309;SDS011;23195;47.744;7.358;2023-01-01T13:12:25;4.43;;;2.40;;
37309;SDS011;23195;47.744;7.358;2023-01-01T13:20:46;4.97;;;2.03;;
37309;SDS011;23195;47.744;7.358;2023-01-01T13:45:20;7.30;;;1.90;;
37309;SDS011;23195;47.744;7.358;2023-01-01T13:48:32;8.10;;;2.00;;
37309;SDS011;23195;47.744;7.358;2023-01-01T13:56:47;4.00;;;2.40;;
37309;SDS011;23195;47.744;7.358;2023-01-01T13:59:34;7.93;;;2.50;;
37309;SDS011;23195;47.744;7.358;2023-01-01T14:05:47;7.17;;;2.60;;
37309;SDS011;23195;47.744;7.358;2023-01-01T14:08:36;5.80;;;2.30;;
37309;SDS011;23195;47.744;7.358;2023-01-01T14:11:18;6.83;;;2.70;;
37309;SDS011;23195;47.744;7.358;2023-01-01T14:13:52;5.73;;;2.60;;
37309;SDS011;23195;47.744;7.358;2023-01-01T14:16:21;4.83;;;2.43;;
37309;SDS011;23195;47.744;7.358;2023-01-01T14:18:57;6.07;;;2.30;;
37309;SDS011;23195;47.744;7.358;2023-01-01T14:21:38;8.10;;;2.50;;
37309;SDS011;23195;47.744;7.358;2023-01-01T14:24:23;7.73;;;2.37;;
37309;SDS011;23195;47.744;7.358;2023-01-01T14:26:52;7.43;;;2.33;;
37309;SDS011;23195;47.744;7.358;2023-01-01T14:29:28;6.23;;;2.50;;
37309;SDS011;23195;47.744;7.358;2023-01-01T14:32:19;7.40;;;2.87;;
37309;SDS011;23195;47.744;7.358;2023-01-01T14:35:00;6.27;;;3.40;;
37309;SDS011;23195;47.744;7.358;2023-01-01T14:37:29;11.30;;;3.20;;
37309;SDS011;23195;47.744;7.358;2023-01-01T14:40:15;7.50;;;2.97;;
37309;SDS011;23195;47.744;7.358;2023-01-01T14:43:00;8.03;;;3.17;;
37309;SDS011;23195;47.744;7.358;2023-01-01T14:48:43;7.63;;;3.37;;
37309;SDS011;23195;47.744;7.358;2023-01-01T14:51:17;5.57;;;3.23;;
37309;SDS011;23195;47.744;7.358;2023-01-01T14:53:54;6.37;;;3.87;;
37309;SDS011;23195;47.744;7.358;2023-01-01T14:56:30;6.77;;;3.57;;
37309;SDS011;23195;47.744;7.358;2023-01-01T15:02:19;7.47;;;3.27;;
37309;SDS011;23195;47.744;7.358;2023-01-01T15:04:56;6.37;;;3.70;;
37309;SDS011;23195;47.744;7.358;2023-01-01T15:07:31;9.93;;;3.90;;
37309;SDS011;23195;47.744;7.358;2023-01-01T15:09:58;9.13;;;4.73;;
37309;SDS011;23195;47.744;7.358;2023-01-01T15:12:36;7.77;;;4.37;;
37309;SDS011;23195;47.744;7.358;2023-01-01T15:21:35;10.93;;;5.73;;
37309;SDS011;23195;47.744;7.358;2023-01-01T15:24:09;8.83;;;5.10;;
37309;SDS011;23195;47.744;7.358;2023-01-01T15:26:56;11.50;;;6.47;;
37309;SDS011;23195;47.744;7.358;2023-01-01T15:29:26;8.83;;;5.40;;
37309;SDS011;23195;47.744;7.358;2023-01-01T15:32:04;9.30;;;5.93;;
37309;SDS011;23195;47.744;7.358;2023-01-01T15:40:50;9.77;;;5.00;;
37309;SDS011;23195;47.744;7.358;2023-01-01T15:43:49;9.70;;;4.50;;
37309;SDS011;23195;47.744;7.358;2023-01-01T15:46:36;10.03;;;4.30;;
37309;SDS011;23195;47.744;7.358;2023-01-01T15:49:20;14.73;;;4.43;;
37309;SDS011;23195;47.744;7.358;2023-01-01T15:55:14;9.83;;;4.77;;
37309;SDS011;23195;47.744;7.358;2023-01-01T15:58:01;10.83;;;4.60;;
37309;SDS011;23195;47.744;7.358;2023-01-01T16:00:29;7.13;;;4.33;;
37309;SDS011;23195;47.744;7.358;2023-01-01T16:03:37;11.00;;;4.70;;
37309;SDS011;23195;47.744;7.358;2023-01-01T16:06:07;8.50;;;4.37;;
37309;SDS011;23195;47.744;7.358;2023-01-01T16:09:01;7.10;;;4.07;;
37309;SDS011;23195;47.744;7.358;2023-01-01T16:11:40;8.13;;;4.47;;
37309;SDS011;23195;47.744;7.358;2023-01-01T16:14:28;10.10;;;5.40;;
37309;SDS011;23195;47.744;7.358;2023-01-01T16:17:52;13.50;;;6.83;;
37309;SDS011;23195;47.744;7.358;2023-01-01T16:20:15;9.03;;;5.27;;
37309;SDS011;23195;47.744;7.358;2023-01-01T16:23:02;9.07;;;5.93;;
37309;SDS011;23195;47.744;7.358;2023-01-01T16:25:38;10.17;;;5.80;;
37309;SDS011;23195;47.744;7.358;2023-01-01T16:28:07;11.90;;;6.17;;
37309;SDS011;23195;47.744;7.358;2023-01-01T16:30:38;12.70;;;6.90;;
37309;SDS011;23195;47.744;7.358;2023-01-01T16:33:10;10.87;;;6.57;;
37309;SDS011;23195;47.744;7.358;2023-01-01T16:35:49;10.60;;;6.63;;
37309;SDS011;23195;47.744;7.358;2023-01-01T16:38:17;11.87;;;7.23;;
37309;SDS011;23195;47.744;7.358;2023-01-01T16:41:01;10.67;;;7.13;;
37309;SDS011;23195;47.744;7.358;2023-01-01T16:43:54;16.97;;;9.30;;
37309;SDS011;23195;47.744;7.358;2023-01-01T16:46:21;15.73;;;8.43;;
37309;SDS011;23195;47.744;7.358;2023-01-01T16:48:52;10.47;;;7.00;;
37309;SDS011;23195;47.744;7.358;2023-01-01T16:51:22;10.23;;;6.93;;
37309;SDS011;23195;47.744;7.358;2023-01-01T16:53:52;14.63;;;8.87;;
37309;SDS011;23195;47.744;7.358;2023-01-01T16:56:28;11.17;;;7.10;;
37309;SDS011;23195;47.744;7.358;2023-01-01T16:58:56;14.63;;;6.93;;
37309;SDS011;23195;47.744;7.358;2023-01-01T17:01:22;13.17;;;7.97;;
37309;SDS011;23195;47.744;7.358;2023-01-01T17:03:51;11.37;;;7.07;;
37309;SDS011;23195;47.744;7.358;2023-01-01T17:06:28;10.50;;;5.97;;
37309;SDS011;23195;47.744;7.358;2023-01-01T17:08:59;13.03;;;6.20;;
37309;SDS011;23195;47.744;7.358;2023-01-01T17:11:29;11.63;;;6.27;;
37309;SDS011;23195;47.744;7.358;2023-01-01T17:14:05;11.40;;;6.83;;
37309;SDS011;23195;47.744;7.358;2023-01-01T17:16:44;10.63;;;7.30;;
37309;SDS011;23195;47.744;7.358;2023-01-01T17:19:20;11.83;;;7.37;;
37309;SDS011;23195;47.744;7.358;2023-01-01T17:21:49;11.20;;;6.37;;
37309;SDS011;23195;47.744;7.358;2023-01-01T17:24:31;19.53;;;6.20;;
37309;SDS011;23195;47.744;7.358;2023-01-01T17:27:07;8.73;;;5.83;;
37309;SDS011;23195;47.744;7.358;2023-01-01T17:29:50;8.13;;;4.93;;
37309;SDS011;23195;47.744;7.358;2023-01-01T17:32:23;11.60;;;4.90;;
37309;SDS011;23195;47.744;7.358;2023-01-01T17:35:00;8.00;;;4.20;;